Time;durP1;ratioP1;P1;durP2;ratioP2;P2;SDS_P1;SDS_P2;PMS_P1;PMS_P2;Temp;Humidity;BMP_temperature;BMP_pressure;BME280_temperature;BME280_humidity;BME280_pressure;Samples;Min_cycle;Max_cycle;Signal;HPM_P1;HPM_P2
2023/02/25 00:00:45;;;;;;;5.20;3.55;;;17.70;70.10;;;;;;5047493;28;20048;-76
2023/02/25 00:03:14;;;;;;;15.60;8.18;;;17.70;69.60;;;;;;5052710;28;20044;-77
2023/02/25 00:05:40;;;;;;;7.93;4.57;;;17.80;70.20;;;;;;5053295;28;20047;-79
2023/02/25 00:08:06;;;;;;;6.45;5.18;;;17.70;68.60;;;;;;5059618;28;20055;-79
2023/02/25 00:10:32;;;;;;;7.80;5.13;;;17.60;69.70;;;;;;5044250;28;20045;-79
2023/02/25 00:12:58;;;;;;;8.82;4.65;;;17.50;69.70;;;;;;5044182;28;20041;-79
2023/02/25 00:15:23;;;;;;;9.18;4.85;;;17.40;69.80;;;;;;5042441;28;20581;-78
2023/02/25 00:17:49;;;;;;;6.75;4.20;;;17.40;69.90;;;;;;5045330;28;20041;-79
2023/02/25 00:20:21;;;;;;;7.07;4.63;;;17.40;69.80;;;;;;5038593;28;20048;-79
2023/02/25 00:22:47;;;;;;;8.35;4.75;;;17.40;70.10;;;;;;5065195;28;20032;-78
2023/02/25 00:25:15;;;;;;;5.95;4.03;;;17.40;70.10;;;;;;5058381;28;20411;-79
2023/02/25 00:27:41;;;;;;;6.43;4.68;;;17.40;70.00;;;;;;5043682;28;20048;-78
2023/02/25 00:30:09;;;;;;;4.80;3.92;;;17.40;70.20;;;;;;5046375;28;20048;-79
2023/02/25 00:32:35;;;;;;;7.43;4.82;;;17.40;70.00;;;;;;5044925;28;20041;-77
2023/02/25 00:35:01;;;;;;;6.68;4.28;;;17.30;70.10;;;;;;5053936;28;20056;-78
2023/02/25 00:37:27;;;;;;;7.15;4.00;;;17.30;70.10;;;;;;5042922;28;20534;-78
2023/02/25 00:39:52;;;;;;;5.50;4.50;;;17.40;70.00;;;;;;5045076;28;20057;-78
2023/02/25 00:42:18;;;;;;;6.20;4.30;;;17.30;70.30;;;;;;5044321;28;20045;-77
2023/02/25 00:44:47;;;;;;;8.60;4.22;;;17.40;70.40;;;;;;5043389;28;20551;-76
2023/02/25 00:47:14;;;;;;;5.55;5.03;;;17.40;70.30;;;;;;5045624;28;20045;-77
2023/02/25 00:49:40;;;;;;;14.60;10.00;;;17.50;70.00;;;;;;5043477;28;20088;-77
2023/02/25 00:52:07;;;;;;;19.00;10.55;;;17.60;69.50;;;;;;5043305;28;20041;-77
2023/02/25 00:54:33;;;;;;;11.90;8.55;;;17.70;69.50;;;;;;5052199;28;20402;-78
2023/02/25 00:56:58;;;;;;;15.40;9.20;;;17.70;69.10;;;;;;5040169;28;20413;-78
2023/02/25 00:59:24;;;;;;;13.95;9.43;;;17.80;69.00;;;;;;5054303;28;20513;-78
2023/02/25 01:01:50;;;;;;;14.57;8.63;;;17.90;68.80;;;;;;5044975;28;20110;-77
2023/02/25 01:04:15;;;;;;;12.20;8.95;;;17.90;68.80;;;;;;5044557;28;20056;-77
2023/02/25 01:06:41;;;;;;;11.70;8.68;;;17.90;68.40;;;;;;5042156;28;20048;-78
2023/02/25 01:09:12;;;;;;;13.98;8.43;;;17.90;68.60;;;;;;5047738;28;20068;-78
2023/02/25 01:11:39;;;;;;;10.25;8.27;;;17.90;68.70;;;;;;5077030;28;20524;-78
2023/02/25 01:14:06;;;;;;;11.18;7.82;;;17.90;68.70;;;;;;5049601;28;20044;-77
2023/02/25 01:16:32;;;;;;;10.50;7.32;;;17.90;68.80;;;;;;5048650;28;20045;-77
2023/02/25 01:19:01;;;;;;;8.25;6.80;;;17.90;68.80;;;;;;5053774;28;20042;-78
2023/02/25 01:21:37;;;;;;;9.50;7.35;;;17.90;68.60;;;;;;5035464;28;20041;-78
2023/02/25 01:24:23;;;;;;;10.48;7.88;;;17.90;68.50;;;;;;5051150;28;20041;-77
2023/02/25 01:26:50;;;;;;;10.10;6.60;;;17.90;68.50;;;;;;5044207;28;20053;-78
2023/02/25 01:29:21;;;;;;;11.30;6.88;;;17.90;68.60;;;;;;5046687;28;20128;-78
2023/02/25 01:31:46;;;;;;;9.23;6.82;;;17.90;68.70;;;;;;5046870;28;20037;-78
2023/02/25 01:34:14;;;;;;;10.25;6.25;;;17.90;68.80;;;;;;5045899;28;20413;-78
2023/02/25 01:36:40;;;;;;;8.00;6.20;;;17.80;69.00;;;;;;5047705;28;20110;-78
2023/02/25 01:39:05;;;;;;;10.65;6.53;;;17.90;68.80;;;;;;5060539;28;20453;-78
2023/02/25 01:41:32;;;;;;;6.72;6.13;;;17.90;68.60;;;;;;5047216;28;20073;-76
2023/02/25 01:44:21;;;;;;;6.47;5.88;;;17.90;68.90;;;;;;5056577;28;20049;-77
2023/02/25 01:46:51;;;;;;;7.03;5.88;;;17.80;68.90;;;;;;5043633;28;20037;-77
2023/02/25 01:49:34;;;;;;;6.78;5.85;;;17.80;69.00;;;;;;5045356;28;20522;-77
2023/02/25 01:52:20;;;;;;;7.03;5.75;;;17.80;68.90;;;;;;5042771;28;20040;-78
2023/02/25 01:54:47;;;;;;;8.48;6.20;;;17.80;69.00;;;;;;5045335;28;20048;-77
2023/02/25 01:57:14;;;;;;;5.82;5.28;;;17.80;69.30;;;;;;5064626;28;20047;-77
2023/02/25 01:59:40;;;;;;;8.30;6.20;;;17.80;69.00;;;;;;4739663;28;10001242;-77
2023/02/25 02:02:14;;;;;;;5.93;5.32;;;17.80;69.00;;;;;;5060768;28;20316;-78
2023/02/25 02:04:40;;;;;;;5.88;5.38;;;17.80;69.00;;;;;;5083286;28;20171;-78
2023/02/25 02:07:06;;;;;;;7.88;5.97;;;17.80;69.00;;;;;;5058464;28;20053;-76
2023/02/25 02:09:32;;;;;;;8.27;5.85;;;17.80;69.00;;;;;;5060341;28;20040;-76
2023/02/25 02:12:03;;;;;;;6.80;6.10;;;17.80;69.10;;;;;;5068005;28;20043;-77
2023/02/25 02:14:39;;;;;;;6.22;5.60;;;17.80;69.00;;;;;;5049269;28;20035;-77
2023/02/25 02:17:08;;;;;;;6.00;4.88;;;17.70;69.30;;;;;;5051741;28;20124;-77
2023/02/25 02:19:33;;;;;;;7.43;4.80;;;17.70;69.20;;;;;;5058335;28;20025;-77
2023/02/25 02:22:13;;;;;;;5.88;5.13;;;17.70;69.40;;;;;;5047218;28;20032;-77
2023/02/25 02:24:58;;;;;;;6.40;4.78;;;17.70;69.50;;;;;;5045813;28;20056;-78
2023/02/25 02:27:49;;;;;;;6.45;4.88;;;17.70;69.30;;;;;;5044787;28;20044;-77
2023/02/25 02:30:37;;;;;;;5.57;5.07;;;17.70;69.20;;;;;;5056171;28;20095;-78
2023/02/25 02:33:21;;;;;;;6.95;4.70;;;17.70;69.60;;;;;;5050836;28;20048;-78
2023/02/25 02:35:57;;;;;;;5.45;4.68;;;17.70;69.20;;;;;;5043677;28;20037;-77
2023/02/25 02:38:37;;;;;;;6.18;4.68;;;17.70;69.50;;;;;;4681740;28;10000062;-80
2023/02/25 02:41:09;;;;;;;4.68;4.13;;;17.70;69.40;;;;;;5052017;28;20128;-79
2023/02/25 02:43:54;;;;;;;4.70;3.97;;;17.70;69.30;;;;;;5041686;28;20877;-79
2023/02/25 02:46:28;;;;;;;4.43;3.83;;;17.70;69.30;;;;;;5057311;28;20052;-75
2023/02/25 02:48:57;;;;;;;6.65;3.90;;;17.70;69.20;;;;;;5025429;28;20048;-79
2023/02/25 02:51:36;;;;;;;4.70;4.30;;;17.60;69.50;;;;;;5035141;28;20437;-79
2023/02/25 02:54:04;;;;;;;6.88;4.40;;;17.60;69.60;;;;;;5039655;28;20120;-75
2023/02/25 02:56:30;;;;;;;5.82;3.47;;;17.60;69.80;;;;;;5041637;28;20573;-79
2023/02/25 02:59:04;;;;;;;5.05;3.58;;;17.50;69.80;;;;;;5041898;28;20037;-79
2023/02/25 03:01:31;;;;;;;6.90;4.25;;;17.50;69.70;;;;;;5058495;28;20581;-79
2023/02/25 03:04:00;;;;;;;7.40;3.95;;;17.50;69.90;;;;;;5040775;28;20529;-78
2023/02/25 03:06:30;;;;;;;7.50;3.88;;;17.60;69.70;;;;;;5051167;28;20041;-78
2023/02/25 03:09:00;;;;;;;4.05;3.60;;;17.50;69.30;;;;;;5043968;28;20147;-77
2023/02/25 03:11:26;;;;;;;4.13;3.45;;;17.50;69.70;;;;;;5043408;28;20054;-79
2023/02/25 03:13:52;;;;;;;4.63;3.92;;;17.60;69.50;;;;;;5039940;28;20037;-78
2023/02/25 03:16:21;;;;;;;5.55;3.60;;;17.60;69.60;;;;;;5035291;28;20041;-79
2023/02/25 03:18:56;;;;;;;5.35;3.25;;;17.50;69.40;;;;;;5068866;28;20041;-78
2023/02/25 03:21:25;;;;;;;4.68;3.15;;;17.50;69.80;;;;;;5040474;28;20038;-78
2023/02/25 03:23:51;;;;;;;6.55;3.53;;;17.50;69.80;;;;;;5041685;28;20110;-81
2023/02/25 03:26:25;;;;;;;9.10;3.95;;;17.50;69.80;;;;;;5043485;28;20514;-80
2023/02/25 03:28:50;;;;;;;4.45;3.22;;;17.40;69.80;;;;;;5058438;28;20044;-79
2023/02/25 03:31:48;;;;;;;6.10;3.20;;;17.40;70.00;;;;;;5037811;28;20545;-80
2023/02/25 03:34:25;;;;;;;3.72;3.00;;;17.40;70.30;;;;;;5035722;28;20041;-80
2023/02/25 03:37:02;;;;;;;6.13;2.80;;;17.30;69.90;;;;;;5048930;28;20120;-80
2023/02/25 03:39:29;;;;;;;7.90;3.70;;;17.30;70.00;;;;;;5057207;28;20045;-81
2023/02/25 03:41:56;;;;;;;5.07;3.35;;;17.30;70.10;;;;;;5048305;28;20052;-80
2023/02/25 03:44:34;;;;;;;4.75;2.80;;;17.20;70.00;;;;;;5063715;28;20098;-80
2023/02/25 03:47:00;;;;;;;5.00;2.90;;;17.30;70.10;;;;;;5046100;28;20536;-80
2023/02/25 03:49:30;;;;;;;3.00;2.75;;;17.20;70.00;;;;;;5046378;28;20045;-80
2023/02/25 03:51:56;;;;;;;4.63;3.30;;;17.30;69.90;;;;;;5044924;28;20040;-79
2023/02/25 03:54:22;;;;;;;3.65;2.67;;;17.20;69.70;;;;;;5063435;28;20065;-79
2023/02/25 03:56:49;;;;;;;3.10;2.90;;;17.20;69.80;;;;;;5046396;28;20091;-79
2023/02/25 03:59:15;;;;;;;2.78;2.58;;;17.20;69.70;;;;;;5048052;28;20045;-79
2023/02/25 04:01:41;;;;;;;6.10;3.00;;;17.20;69.70;;;;;;5049365;28;20045;-79
2023/02/25 04:04:07;;;;;;;4.28;2.85;;;17.20;69.50;;;;;;5046181;28;20037;-79
2023/02/25 04:06:33;;;;;;;4.15;2.63;;;17.20;69.20;;;;;;5046047;28;20353;-79
2023/02/25 04:08:59;;;;;;;3.90;2.70;;;17.20;69.10;;;;;;5046421;28;20065;-79
2023/02/25 04:11:24;;;;;;;3.45;2.53;;;17.20;69.10;;;;;;5048568;28;20478;-79
2023/02/25 04:13:50;;;;;;;3.38;2.58;;;17.20;68.70;;;;;;5048044;28;20586;-79
2023/02/25 04:16:15;;;;;;;3.60;2.75;;;17.20;69.00;;;;;;5046463;28;20422;-79
2023/02/25 04:18:41;;;;;;;2.55;2.30;;;17.20;68.90;;;;;;5044952;28;20051;-79
2023/02/25 04:21:07;;;;;;;2.60;2.40;;;17.20;68.80;;;;;;5048395;28;20383;-79
2023/02/25 04:23:33;;;;;;;2.97;2.78;;;17.20;68.60;;;;;;5049426;28;20072;-79
2023/02/25 04:25:59;;;;;;;2.78;2.50;;;17.10;68.60;;;;;;5050118;28;20052;-79
2023/02/25 04:28:24;;;;;;;3.63;2.40;;;17.10;68.60;;;;;;5047978;28;20049;-79
2023/02/25 04:30:50;;;;;;;2.88;2.63;;;17.10;68.60;;;;;;5046523;28;20128;-79
2023/02/25 04:33:16;;;;;;;2.78;2.58;;;17.10;68.50;;;;;;5044372;28;20057;-79
2023/02/25 04:35:41;;;;;;;2.40;2.20;;;17.10;68.40;;;;;;5059943;28;20037;-79
2023/02/25 04:38:07;;;;;;;2.65;2.45;;;17.10;68.30;;;;;;5048169;28;20045;-79
2023/02/25 04:40:32;;;;;;;2.45;2.15;;;17.10;68.40;;;;;;5061686;28;20033;-79
2023/02/25 04:42:58;;;;;;;2.65;2.45;;;17.00;69.00;;;;;;5042253;28;20124;-78
2023/02/25 04:45:24;;;;;;;4.75;2.50;;;17.00;68.30;;;;;;5046551;28;20588;-78
2023/02/25 04:47:53;;;;;;;5.13;2.45;;;17.00;68.20;;;;;;5062516;28;20052;-79
2023/02/25 04:50:19;;;;;;;2.67;2.17;;;17.00;68.20;;;;;;5046459;28;20049;-79
2023/02/25 04:52:44;;;;;;;2.08;1.90;;;17.00;68.40;;;;;;5063005;28;20048;-79
2023/02/25 04:55:10;;;;;;;2.22;2.10;;;17.00;68.10;;;;;;5046765;28;20454;-79
2023/02/25 04:57:41;;;;;;;2.15;2.03;;;17.00;68.10;;;;;;5062726;28;20037;-78
2023/02/25 05:00:09;;;;;;;2.30;2.10;;;16.90;68.10;;;;;;5043061;28;20089;-79
2023/02/25 05:02:35;;;;;;;3.05;2.60;;;16.90;68.20;;;;;;5049348;28;20705;-79
2023/02/25 05:05:00;;;;;;;2.55;1.98;;;16.90;68.10;;;;;;5045268;28;20064;-79
2023/02/25 05:07:26;;;;;;;2.33;2.13;;;16.90;68.20;;;;;;5078425;28;20056;-79
2023/02/25 05:09:51;;;;;;;3.47;2.55;;;16.90;68.10;;;;;;5044661;28;20047;-79
2023/02/25 05:12:17;;;;;;;4.43;2.08;;;16.90;68.40;;;;;;5046658;28;20041;-79
2023/02/25 05:14:42;;;;;;;2.50;2.30;;;16.90;68.20;;;;;;5041767;28;20044;-79
2023/02/25 05:17:08;;;;;;;2.55;2.30;;;16.90;68.20;;;;;;5046518;28;20135;-79
2023/02/25 05:19:34;;;;;;;2.47;2.15;;;16.90;68.00;;;;;;5045229;28;20098;-79
2023/02/25 05:21:59;;;;;;;5.03;2.35;;;16.80;68.10;;;;;;5045465;28;20049;-78
2023/02/25 05:24:25;;;;;;;2.28;2.08;;;16.80;68.20;;;;;;5060280;28;20107;-79
2023/02/25 05:26:50;;;;;;;3.10;2.53;;;16.80;68.20;;;;;;5047636;28;20041;-79
2023/02/25 05:29:16;;;;;;;2.50;2.30;;;16.80;68.40;;;;;;5045884;28;20041;-78
2023/02/25 05:31:41;;;;;;;3.33;1.75;;;16.80;68.70;;;;;;5041710;28;21031;-78
2023/02/25 05:34:07;;;;;;;2.25;1.80;;;16.80;68.90;;;;;;5045067;28;20110;-79
2023/02/25 05:36:33;;;;;;;1.77;1.67;;;16.80;68.90;;;;;;5063272;28;20036;-79
2023/02/25 05:39:01;;;;;;;1.90;1.80;;;16.80;68.90;;;;;;5058725;28;20463;-79
2023/02/25 05:41:27;;;;;;;2.03;1.92;;;16.80;68.80;;;;;;5042861;28;20405;-79
2023/02/25 05:43:52;;;;;;;4.00;2.10;;;16.80;69.00;;;;;;5047860;28;20037;-79
2023/02/25 05:46:18;;;;;;;2.20;1.90;;;16.80;69.00;;;;;;5044370;28;20048;-79
2023/02/25 05:48:47;;;;;;;1.80;1.70;;;16.80;69.00;;;;;;5042717;28;20470;-80
2023/02/25 05:51:17;;;;;;;1.80;1.70;;;16.80;69.10;;;;;;5044522;28;20044;-79
2023/02/25 05:53:47;;;;;;;1.80;1.67;;;16.80;69.50;;;;;;5042861;28;20041;-79
2023/02/25 05:56:19;;;;;;;2.17;1.52;;;16.80;69.30;;;;;;5062558;28;20482;-79
2023/02/25 05:58:47;;;;;;;2.05;1.95;;;16.70;69.30;;;;;;5048611;28;20038;-79
2023/02/25 06:01:17;;;;;;;1.70;1.55;;;16.70;69.40;;;;;;5044854;28;20037;-79
2023/02/25 06:03:44;;;;;;;1.98;1.73;;;16.70;69.10;;;;;;5080978;28;20036;-78
2023/02/25 06:06:13;;;;;;;1.88;1.67;;;16.70;68.80;;;;;;5051313;28;20525;-78
2023/02/25 06:08:39;;;;;;;2.78;1.75;;;16.70;69.10;;;;;;5046469;28;20072;-79
2023/02/25 06:11:05;;;;;;;2.17;1.48;;;16.70;69.10;;;;;;5042211;28;20045;-79
2023/02/25 06:13:31;;;;;;;2.45;1.70;;;16.70;69.20;;;;;;5042629;28;20068;-79
2023/02/25 06:15:57;;;;;;;2.42;1.65;;;16.70;69.20;;;;;;5042272;28;20044;-79
2023/02/25 06:18:22;;;;;;;1.70;1.60;;;16.70;68.80;;;;;;5044326;28;20033;-80
2023/02/25 06:20:48;;;;;;;1.75;1.65;;;16.70;68.90;;;;;;5044928;28;20121;-80
2023/02/25 06:23:13;;;;;;;1.40;1.30;;;16.60;68.90;;;;;;5044727;28;20124;-80
2023/02/25 06:25:39;;;;;;;1.55;1.45;;;16.60;69.20;;;;;;5047524;28;20546;-80
2023/02/25 06:28:04;;;;;;;1.65;1.55;;;16.60;68.80;;;;;;5063413;28;20041;-78
2023/02/25 06:30:30;;;;;;;1.40;1.30;;;16.60;68.50;;;;;;5058090;28;20056;-78
2023/02/25 06:32:56;;;;;;;1.42;1.33;;;16.60;68.80;;;;;;5043219;28;20062;-77
2023/02/25 06:35:22;;;;;;;1.30;1.20;;;16.60;68.80;;;;;;5063856;28;20055;-77
2023/02/25 06:37:58;;;;;;;1.67;1.48;;;16.60;68.70;;;;;;5058560;28;20119;-77
2023/02/25 06:40:24;;;;;;;1.60;1.50;;;16.60;68.80;;;;;;5042561;28;20044;-77
2023/02/25 06:42:49;;;;;;;1.13;1.10;;;16.60;68.60;;;;;;5046746;28;20037;-77
2023/02/25 06:45:15;;;;;;;1.50;1.30;;;16.60;68.20;;;;;;5046923;28;20056;-77
2023/02/25 06:47:41;;;;;;;1.40;1.30;;;16.60;68.40;;;;;;5042549;28;20580;-77
2023/02/25 06:50:07;;;;;;;1.50;1.40;;;16.60;68.60;;;;;;5063684;28;20072;-79
2023/02/25 06:52:32;;;;;;;1.73;1.63;;;16.60;68.20;;;;;;5057841;28;20041;-78
2023/02/25 06:54:58;;;;;;;1.90;1.40;;;16.60;68.50;;;;;;5054377;28;20051;-79
2023/02/25 06:57:24;;;;;;;2.97;1.60;;;16.60;68.70;;;;;;5057501;28;20053;-79
2023/02/25 06:59:52;;;;;;;1.15;1.15;;;16.60;68.00;;;;;;5046940;28;20102;-78
2023/02/25 07:02:17;;;;;;;1.55;1.45;;;16.60;68.30;;;;;;5043936;28;20406;-79
2023/02/25 07:04:43;;;;;;;1.67;1.38;;;16.60;68.20;;;;;;5046448;28;20051;-79
2023/02/25 07:07:09;;;;;;;1.40;1.30;;;16.60;68.10;;;;;;5049122;28;20052;-79
2023/02/25 07:09:34;;;;;;;1.38;1.20;;;16.60;68.20;;;;;;5049297;28;20147;-79
2023/02/25 07:12:00;;;;;;;2.78;1.30;;;16.60;68.00;;;;;;5051277;28;20064;-79
2023/02/25 07:14:25;;;;;;;1.23;1.13;;;16.60;68.00;;;;;;5080239;28;20431;-79
2023/02/25 07:16:51;;;;;;;1.50;1.40;;;16.60;67.90;;;;;;5053235;28;20524;-79
2023/02/25 07:19:16;;;;;;;1.25;1.20;;;16.60;67.90;;;;;;5049881;28;20041;-79
2023/02/25 07:21:42;;;;;;;0.85;0.85;;;16.50;67.90;;;;;;5046489;28;20203;-79
2023/02/25 07:24:09;;;;;;;1.13;1.02;;;16.60;68.20;;;;;;5045764;28;20045;-79
2023/02/25 07:26:35;;;;;;;1.23;1.10;;;16.60;68.00;;;;;;5046501;28;20092;-78
2023/02/25 07:29:01;;;;;;;0.82;0.82;;;16.50;67.90;;;;;;5048870;28;20060;-79
2023/02/25 07:31:27;;;;;;;1.00;0.90;;;16.50;67.60;;;;;;5047048;28;20041;-78
2023/02/25 07:33:55;;;;;;;1.13;1.00;;;16.50;67.50;;;;;;5047267;28;20036;-79
2023/02/25 07:36:21;;;;;;;1.17;1.08;;;16.50;67.90;;;;;;5048301;28;20094;-77
2023/02/25 07:38:49;;;;;;;1.05;1.05;;;16.50;67.80;;;;;;5067378;28;20036;-78
2023/02/25 07:41:16;;;;;;;1.00;1.00;;;16.50;67.80;;;;;;5046775;28;20503;-78
2023/02/25 07:43:42;;;;;;;1.10;0.93;;;16.50;68.00;;;;;;5048791;28;20037;-79
2023/02/25 07:46:08;;;;;;;0.60;0.60;;;16.50;68.00;;;;;;5045250;28;20051;-79
2023/02/25 07:48:34;;;;;;;1.08;0.98;;;16.40;68.00;;;;;;5040526;28;20079;-79
2023/02/25 07:51:11;;;;;;;1.25;0.95;;;16.40;68.00;;;;;;5047801;28;20064;-79
2023/02/25 07:53:37;;;;;;;0.93;0.93;;;16.40;68.00;;;;;;5043882;28;20045;-79
2023/02/25 07:56:04;;;;;;;1.35;1.25;;;16.40;67.90;;;;;;5047553;28;20114;-79
2023/02/25 07:58:30;;;;;;;1.17;1.08;;;16.40;67.70;;;;;;5062500;28;20063;-79
2023/02/25 08:00:56;;;;;;;1.00;1.00;;;16.40;67.70;;;;;;5045203;28;20514;-80
2023/02/25 08:03:21;;;;;;;0.80;0.80;;;16.40;68.10;;;;;;5062916;28;20047;-79
2023/02/25 08:05:50;;;;;;;1.10;1.00;;;16.40;68.10;;;;;;5047526;28;20033;-79
2023/02/25 08:08:15;;;;;;;1.45;0.80;;;16.50;68.30;;;;;;5045946;28;20041;-79
2023/02/25 08:10:41;;;;;;;1.30;1.17;;;16.40;67.90;;;;;;5047223;28;20127;-78
2023/02/25 08:13:07;;;;;;;1.10;1.10;;;16.50;67.60;;;;;;5046096;28;20065;-79
2023/02/25 08:15:32;;;;;;;1.20;0.70;;;16.40;67.70;;;;;;5049024;28;20509;-79
2023/02/25 08:17:58;;;;;;;3.03;0.93;;;16.40;67.80;;;;;;5049914;28;20040;-79
2023/02/25 08:20:24;;;;;;;1.52;0.80;;;16.40;67.90;;;;;;5057132;28;20065;-79
2023/02/25 08:22:49;;;;;;;2.55;0.98;;;16.40;67.80;;;;;;5051749;28;20052;-79
2023/02/25 08:25:15;;;;;;;0.80;0.80;;;16.40;67.70;;;;;;5050628;28;20047;-79
2023/02/25 08:27:42;;;;;;;1.15;0.90;;;16.40;67.70;;;;;;5048444;28;20041;-79
2023/02/25 08:30:09;;;;;;;0.90;0.90;;;16.40;67.60;;;;;;5045334;28;20135;-79
2023/02/25 08:32:35;;;;;;;1.20;0.80;;;16.30;67.80;;;;;;5046637;28;20036;-79
2023/02/25 08:35:00;;;;;;;0.60;0.60;;;16.40;67.60;;;;;;5047097;28;20601;-79
2023/02/25 08:37:26;;;;;;;1.70;1.00;;;16.40;67.80;;;;;;5048032;28;20128;-79
2023/02/25 08:39:55;;;;;;;0.90;0.90;;;16.40;67.60;;;;;;5047136;28;20041;-79
2023/02/25 08:42:21;;;;;;;0.60;0.60;;;16.40;67.50;;;;;;5034870;28;20071;-79
2023/02/25 08:44:47;;;;;;;0.90;0.90;;;16.30;67.40;;;;;;5067421;28;20075;-78
2023/02/25 08:47:13;;;;;;;1.00;0.50;;;16.40;67.40;;;;;;5046297;28;20051;-78
2023/02/25 08:49:39;;;;;;;0.60;0.60;;;16.40;67.40;;;;;;5055815;28;20049;-80
2023/02/25 08:52:05;;;;;;;0.70;0.70;;;16.40;67.50;;;;;;5058187;28;20044;-79
2023/02/25 08:54:31;;;;;;;0.82;0.77;;;16.40;67.20;;;;;;5039019;28;20057;-79
2023/02/25 08:56:59;;;;;;;1.13;1.02;;;16.40;67.30;;;;;;5047329;28;20048;-79
2023/02/25 08:59:24;;;;;;;0.98;0.70;;;16.30;67.30;;;;;;5045510;28;20047;-79
2023/02/25 09:01:51;;;;;;;0.50;0.50;;;16.30;67.20;;;;;;5070025;28;20040;-79
2023/02/25 09:04:21;;;;;;;1.20;0.80;;;16.30;67.10;;;;;;5063100;28;20509;-79
2023/02/25 09:06:47;;;;;;;1.23;0.60;;;16.30;67.10;;;;;;5058357;28;20053;-79
2023/02/25 09:09:14;;;;;;;0.63;0.63;;;16.30;66.90;;;;;;5052074;28;20107;-79
2023/02/25 09:11:40;;;;;;;0.75;0.60;;;16.30;67.00;;;;;;5065346;28;20044;-79
2023/02/25 09:14:06;;;;;;;0.80;0.73;;;16.30;66.90;;;;;;5054554;28;20040;-78
2023/02/25 09:16:31;;;;;;;1.02;0.70;;;16.30;67.00;;;;;;5070320;28;20043;-79
2023/02/25 09:18:57;;;;;;;0.63;0.63;;;16.40;67.00;;;;;;5063409;28;20037;-79
2023/02/25 09:21:22;;;;;;;0.75;0.57;;;16.40;66.90;;;;;;5048145;28;20040;-80
2023/02/25 09:23:50;;;;;;;1.17;0.75;;;16.40;67.30;;;;;;5049680;28;20052;-79
2023/02/25 09:26:16;;;;;;;0.85;0.50;;;16.40;67.40;;;;;;5044304;28;20090;-79
2023/02/25 09:28:42;;;;;;;1.90;0.60;;;16.40;67.20;;;;;;5042996;28;20136;-79
2023/02/25 09:31:07;;;;;;;0.40;0.40;;;16.40;67.00;;;;;;5047056;28;20053;-79
2023/02/25 09:33:34;;;;;;;0.40;0.40;;;16.40;67.70;;;;;;5049711;28;20044;-79
2023/02/25 09:36:07;;;;;;;0.75;0.50;;;16.40;67.10;;;;;;5042997;28;20086;-79
2023/02/25 09:38:33;;;;;;;0.63;0.63;;;16.50;67.10;;;;;;5047960;28;20037;-79
2023/02/25 09:40:59;;;;;;;0.70;0.60;;;16.50;67.30;;;;;;5050495;28;20037;-79
2023/02/25 09:43:27;;;;;;;0.63;0.63;;;16.50;67.80;;;;;;5051090;28;20140;-79
2023/02/25 09:45:56;;;;;;;1.55;0.70;;;16.60;67.80;;;;;;5064742;28;20037;-79
2023/02/25 09:48:27;;;;;;;0.65;0.50;;;16.70;68.40;;;;;;5033748;28;20842;-79
2023/02/25 09:50:59;;;;;;;0.52;0.52;;;16.60;68.70;;;;;;5049341;28;20044;-79
2023/02/25 09:53:33;;;;;;;0.80;0.57;;;16.70;69.00;;;;;;5047145;28;20055;-79
2023/02/25 09:55:58;;;;;;;0.70;0.70;;;16.60;69.00;;;;;;5049485;28;20047;-79
2023/02/25 09:58:34;;;;;;;0.50;0.50;;;16.60;69.00;;;;;;5051230;28;20041;-79
2023/02/25 10:01:33;;;;;;;0.70;0.70;;;16.70;68.80;;;;;;5026879;28;20146;-79
2023/02/25 10:04:07;;;;;;;0.88;0.80;;;16.70;68.80;;;;;;5059881;28;20045;-78
2023/02/25 10:06:42;;;;;;;;;;;16.70;69.40;;;;;;5045803;28;20057;-80
2023/02/25 10:09:26;;;;;;;0.70;0.65;;;16.70;68.80;;;;;;5041687;28;20012;-79
2023/02/25 10:11:55;;;;;;;0.98;0.60;;;16.70;68.80;;;;;;5042128;28;20041;-78
2023/02/25 10:14:59;;;;;;;1.38;0.63;;;16.70;68.80;;;;;;5059472;28;20068;-79
2023/02/25 10:17:28;;;;;;;0.47;0.47;;;16.70;68.90;;;;;;5052387;28;20045;-77
2023/02/25 10:20:26;;;;;;;1.23;0.50;;;16.80;69.20;;;;;;5040696;28;20041;-78
2023/02/25 10:23:00;;;;;;;1.05;0.50;;;16.80;69.10;;;;;;5064618;28;20075;-79
2023/02/25 10:25:31;;;;;;;1.08;0.75;;;17.00;69.40;;;;;;5067154;28;20041;-79
2023/02/25 10:28:01;;;;;;;0.98;0.60;;;17.10;70.50;;;;;;5046199;28;20105;-77
2023/02/25 10:30:32;;;;;;;1.45;0.98;;;17.10;70.70;;;;;;5065602;28;20062;-78
2023/02/25 10:32:59;;;;;;;1.15;0.60;;;17.10;71.20;;;;;;5047644;28;20043;-77
2023/02/25 10:35:31;;;;;;;1.50;0.40;;;17.20;71.70;;;;;;5048768;28;20053;-75
2023/02/25 10:37:57;;;;;;;3.10;0.60;;;17.20;70.90;;;;;;5032656;28;20567;-81
2023/02/25 10:40:24;;;;;;;1.83;0.60;;;17.20;70.40;;;;;;5031116;28;20056;-78
2023/02/25 10:42:53;;;;;;;1.70;0.50;;;17.30;69.80;;;;;;5029075;28;20532;-80
2023/02/25 10:45:26;;;;;;;1.85;0.43;;;17.30;69.60;;;;;;5049131;28;20041;-78
2023/02/25 10:48:06;;;;;;;1.48;0.40;;;17.20;69.70;;;;;;5048060;28;20120;-78
2023/02/25 10:50:31;;;;;;;1.52;0.60;;;17.30;69.20;;;;;;5045237;28;20063;-79
2023/02/25 10:53:02;;;;;;;2.55;0.50;;;17.40;69.30;;;;;;4678989;28;10000399;-78
2023/02/25 10:55:53;;;;;;;3.17;0.77;;;17.30;68.30;;;;;;5022564;28;20054;-77
2023/02/25 10:58:34;;;;;;;9.32;0.70;;;17.30;69.20;;;;;;5053964;28;20117;-78
2023/02/25 11:01:05;;;;;;;1.55;0.80;;;17.30;68.70;;;;;;5041700;28;20045;-77
2023/02/25 11:03:32;;;;;;;1.38;0.70;;;17.30;68.70;;;;;;5027991;28;20037;-77
2023/02/25 11:06:12;;;;;;;5.38;0.70;;;17.30;68.80;;;;;;5046919;28;20068;-77
2023/02/25 11:08:38;;;;;;;1.05;0.60;;;17.20;68.60;;;;;;5056372;28;20076;-77
2023/02/25 11:11:12;;;;;;;1.60;0.57;;;17.20;68.40;;;;;;5043330;28;20159;-77
2023/02/25 11:13:39;;;;;;;1.90;0.43;;;17.30;68.50;;;;;;5039725;28;20045;-76
2023/02/25 11:16:09;;;;;;;2.42;0.60;;;17.30;69.40;;;;;;5037204;28;20045;-76
2023/02/25 11:18:35;;;;;;;1.00;0.68;;;17.20;68.70;;;;;;5040558;28;20052;-78
2023/02/25 11:21:27;;;;;;;1.08;0.77;;;17.20;68.70;;;;;;5048831;28;20689;-77
2023/02/25 11:23:53;;;;;;;0.60;0.60;;;17.20;68.70;;;;;;5041897;28;20253;-78
2023/02/25 11:26:36;;;;;;;1.20;0.63;;;17.20;68.90;;;;;;5041387;28;20052;-77
2023/02/25 11:29:08;;;;;;;3.47;0.60;;;17.20;69.00;;;;;;5036308;28;20073;-77
2023/02/25 11:31:39;;;;;;;1.90;0.90;;;17.20;69.00;;;;;;5049416;28;20124;-78
2023/02/25 11:34:13;;;;;;;0.52;0.50;;;17.20;69.00;;;;;;5051342;28;20545;-77
2023/02/25 11:36:39;;;;;;;0.55;0.50;;;17.20;69.10;;;;;;5055972;28;20532;-79
2023/02/25 11:39:29;;;;;;;0.57;0.50;;;17.20;69.40;;;;;;5038591;28;20571;-79
2023/02/25 11:41:56;;;;;;;1.60;0.77;;;17.20;68.90;;;;;;5036523;28;20028;-79
2023/02/25 11:44:41;;;;;;;0.73;0.63;;;17.20;69.60;;;;;;5039092;28;23708;-79
2023/02/25 11:47:17;;;;;;;;;;;17.20;69.60;;;;;;5040808;28;20046;-79
2023/02/25 11:50:14;;;;;;;1.17;0.50;;;17.10;69.00;;;;;;5053499;28;20003;-77
2023/02/25 11:53:00;;;;;;;0.93;0.70;;;17.10;68.30;;;;;;5042465;28;20052;-79
2023/02/25 11:55:48;;;;;;;2.53;0.80;;;17.10;69.20;;;;;;5059462;28;20391;-78
2023/02/25 11:58:58;;;;;;;0.70;0.70;;;17.10;69.30;;;;;;5062433;28;20469;-77
2023/02/25 12:01:47;;;;;;;1.00;0.60;;;17.10;69.20;;;;;;5046214;28;20104;-78
2023/02/25 12:04:22;;;;;;;0.93;0.70;;;17.10;69.20;;;;;;5057476;28;20107;-76
2023/02/25 12:07:09;;;;;;;2.25;1.10;;;17.10;69.30;;;;;;5057427;28;20685;-79
2023/02/25 12:10:03;;;;;;;1.65;0.60;;;17.10;69.40;;;;;;5060983;28;20041;-79
2023/02/25 12:12:44;;;;;;;2.47;0.90;;;17.10;69.50;;;;;;5064564;28;20122;-80
2023/02/25 12:15:24;;;;;;;4.68;1.23;;;17.20;70.10;;;;;;5061295;28;20044;-78
2023/02/25 12:18:07;;;;;;;2.53;0.90;;;17.20;70.90;;;;;;5055066;28;20047;-79
2023/02/25 12:20:39;;;;;;;4.47;0.98;;;17.20;71.40;;;;;;5057214;28;20020;-79
2023/02/25 12:23:44;;;;;;;2.20;1.20;;;17.20;70.50;;;;;;5047891;28;20041;-80
2023/02/25 12:26:28;;;;;;;2.10;1.40;;;17.20;71.80;;;;;;5063887;28;20040;-79
2023/02/25 12:29:03;;;;;;;;;;;17.20;73.60;;;;;;5064583;28;20052;-81
2023/02/25 12:31:35;;;;;;;1.65;1.55;;;17.30;73.50;;;;;;5062232;28;19920;-78
2023/02/25 12:34:10;;;;;;;3.40;0.80;;;17.30;73.00;;;;;;5044929;28;20518;-79
2023/02/25 12:37:13;;;;;;;2.25;1.00;;;17.30;73.00;;;;;;5052609;28;20068;-78
2023/02/25 12:39:45;;;;;;;3.03;1.05;;;17.30;73.20;;;;;;5044398;28;20441;-78
2023/02/25 12:42:29;;;;;;;1.88;0.73;;;17.40;87.20;;;;;;5044166;28;21576;-77
2023/02/25 12:45:03;;;;;;;2.13;0.50;;;17.40;88.80;;;;;;5047617;28;20033;-78
2023/02/25 12:47:38;;;;;;;4.90;0.80;;;17.30;88.70;;;;;;5060989;28;20048;-77
2023/02/25 12:50:25;;;;;;;3.08;0.60;;;17.30;88.20;;;;;;5052196;28;20048;-79
2023/02/25 12:53:09;;;;;;;1.70;0.80;;;17.30;88.10;;;;;;5061544;28;20517;-77
2023/02/25 12:56:14;;;;;;;5.37;0.70;;;17.40;87.90;;;;;;5057340;28;20573;-78
2023/02/25 12:58:42;;;;;;;2.42;0.75;;;17.40;88.30;;;;;;5042493;28;20103;-77
2023/02/25 13:01:32;;;;;;;1.40;0.80;;;17.30;88.50;;;;;;5050575;28;20055;-76